sensor_id;sensor_type;location;lat;lon;timestamp;temperature;humidity
29281;DHT22;25048;49.590;11.026;2023-12-20T00:00:37;5.40;99.90
29281;DHT22;25048;49.590;11.026;2023-12-20T00:03:04;5.30;99.90
29281;DHT22;25048;49.590;11.026;2023-12-20T00:05:32;5.30;99.90
29281;DHT22;25048;49.590;11.026;2023-12-20T00:07:59;5.30;99.90
29281;DHT22;25048;49.590;11.026;2023-12-20T00:10:27;5.30;99.90
29281;DHT22;25048;49.590;11.026;2023-12-20T00:12:54;5.20;99.90
29281;DHT22;25048;49.590;11.026;2023-12-20T00:15:22;5.20;99.90
29281;DHT22;25048;49.590;11.026;2023-12-20T00:17:49;5.20;99.90
29281;DHT22;25048;49.590;11.026;2023-12-20T00:20:17;5.20;99.90
29281;DHT22;25048;49.590;11.026;2023-12-20T00:22:45;5.20;99.90
29281;DHT22;25048;49.590;11.026;2023-12-20T00:25:13;5.20;99.90
29281;DHT22;25048;49.590;11.026;2023-12-20T00:27:40;5.10;99.90
29281;DHT22;25048;49.590;11.026;2023-12-20T00:30:08;5.10;99.90
29281;DHT22;25048;49.590;11.026;2023-12-20T00:32:36;5.10;99.90
29281;DHT22;25048;49.590;11.026;2023-12-20T00:35:04;5.10;99.90
29281;DHT22;25048;49.590;11.026;2023-12-20T00:37:31;5.10;99.90
29281;DHT22;25048;49.590;11.026;2023-12-20T00:39:59;5.00;99.90
29281;DHT22;25048;49.590;11.026;2023-12-20T00:42:27;5.10;99.90
29281;DHT22;25048;49.590;11.026;2023-12-20T00:44:54;5.10;99.90
29281;DHT22;25048;49.590;11.026;2023-12-20T00:47:22;5.10;99.90
29281;DHT22;25048;49.590;11.026;2023-12-20T00:49:49;5.10;99.90
29281;DHT22;25048;49.590;11.026;2023-12-20T00:52:18;5.10;99.90
29281;DHT22;25048;49.590;11.026;2023-12-20T00:54:45;5.10;99.90
29281;DHT22;25048;49.590;11.026;2023-12-20T00:57:13;5.10;99.90
29281;DHT22;25048;49.590;11.026;2023-12-20T00:59:41;5.10;99.90
29281;DHT22;25048;49.590;11.026;2023-12-20T01:02:09;5.10;99.90
29281;DHT22;25048;49.590;11.026;2023-12-20T01:04:36;5.10;99.90
29281;DHT22;25048;49.590;11.026;2023-12-20T01:07:04;5.10;99.90
29281;DHT22;25048;49.590;11.026;2023-12-20T01:09:31;5.10;99.90
29281;DHT22;25048;49.590;11.026;2023-12-20T01:11:59;5.10;99.90
29281;DHT22;25048;49.590;11.026;2023-12-20T01:14:26;5.10;99.90
29281;DHT22;25048;49.590;11.026;2023-12-20T01:16:54;5.10;99.90
29281;DHT22;25048;49.590;11.026;2023-12-20T01:19:21;5.10;99.90
29281;DHT22;25048;49.590;11.026;2023-12-20T01:21:50;5.00;99.90
29281;DHT22;25048;49.590;11.026;2023-12-20T01:24:17;5.00;99.90
29281;DHT22;25048;49.590;11.026;2023-12-20T01:26:45;5.00;99.90
29281;DHT22;25048;49.590;11.026;2023-12-20T01:29:12;5.00;99.90
29281;DHT22;25048;49.590;11.026;2023-12-20T01:31:40;5.00;99.90
29281;DHT22;25048;49.590;11.026;2023-12-20T01:34:08;5.00;99.90
29281;DHT22;25048;49.590;11.026;2023-12-20T01:36:35;5.00;99.90
29281;DHT22;25048;49.590;11.026;2023-12-20T01:39:03;4.90;99.90
29281;DHT22;25048;49.590;11.026;2023-12-20T01:41:30;4.90;99.90
29281;DHT22;25048;49.590;11.026;2023-12-20T01:43:58;4.90;99.90
29281;DHT22;25048;49.590;11.026;2023-12-20T01:46:26;4.90;99.90
29281;DHT22;25048;49.590;11.026;2023-12-20T01:48:54;4.90;99.90
29281;DHT22;25048;49.590;11.026;2023-12-20T01:51:21;4.90;99.90
29281;DHT22;25048;49.590;11.026;2023-12-20T01:53:49;4.80;99.90
29281;DHT22;25048;49.590;11.026;2023-12-20T01:56:17;4.90;99.90
29281;DHT22;25048;49.590;11.026;2023-12-20T01:58:46;4.80;99.90
29281;DHT22;25048;49.590;11.026;2023-12-20T02:01:14;4.80;99.90
29281;DHT22;25048;49.590;11.026;2023-12-20T02:03:42;4.80;99.90
29281;DHT22;25048;49.590;11.026;2023-12-20T02:06:10;4.70;99.90
29281;DHT22;25048;49.590;11.026;2023-12-20T02:08:38;4.80;99.90
29281;DHT22;25048;49.590;11.026;2023-12-20T02:11:05;4.70;99.90
29281;DHT22;25048;49.590;11.026;2023-12-20T02:13:33;4.70;99.90
29281;DHT22;25048;49.590;11.026;2023-12-20T02:16:01;4.70;99.90
29281;DHT22;25048;49.590;11.026;2023-12-20T02:18:29;4.60;99.90
29281;DHT22;25048;49.590;11.026;2023-12-20T02:20:56;4.60;99.90
29281;DHT22;25048;49.590;11.026;2023-12-20T02:23:24;4.60;99.90
29281;DHT22;25048;49.590;11.026;2023-12-20T02:25:51;4.60;99.90
29281;DHT22;25048;49.590;11.026;2023-12-20T02:28:19;4.50;99.90
29281;DHT22;25048;49.590;11.026;2023-12-20T02:30:48;4.50;99.90
29281;DHT22;25048;49.590;11.026;2023-12-20T02:33:16;4.50;99.90
29281;DHT22;25048;49.590;11.026;2023-12-20T02:35:43;4.50;99.90
29281;DHT22;25048;49.590;11.026;2023-12-20T02:38:11;4.40;99.90
29281;DHT22;25048;49.590;11.026;2023-12-20T02:40:39;4.40;99.90
29281;DHT22;25048;49.590;11.026;2023-12-20T02:43:06;4.40;99.90
29281;DHT22;25048;49.590;11.026;2023-12-20T02:45:34;4.40;99.90
29281;DHT22;25048;49.590;11.026;2023-12-20T02:48:02;4.40;99.90
29281;DHT22;25048;49.590;11.026;2023-12-20T02:50:29;4.30;99.90
29281;DHT22;25048;49.590;11.026;2023-12-20T02:52:57;4.30;99.90
29281;DHT22;25048;49.590;11.026;2023-12-20T02:55:24;4.30;99.90
29281;DHT22;25048;49.590;11.026;2023-12-20T02:57:52;4.30;99.90
29281;DHT22;25048;49.590;11.026;2023-12-20T03:00:19;4.30;99.90
29281;DHT22;25048;49.590;11.026;2023-12-20T03:02:47;4.20;99.90
29281;DHT22;25048;49.590;11.026;2023-12-20T03:05:14;4.30;99.90
29281;DHT22;25048;49.590;11.026;2023-12-20T03:07:42;4.20;99.90
29281;DHT22;25048;49.590;11.026;2023-12-20T03:10:09;4.20;99.90
29281;DHT22;25048;49.590;11.026;2023-12-20T03:12:37;4.20;99.90
29281;DHT22;25048;49.590;11.026;2023-12-20T03:15:05;4.20;99.90
29281;DHT22;25048;49.590;11.026;2023-12-20T03:17:32;4.20;99.90
29281;DHT22;25048;49.590;11.026;2023-12-20T03:20:00;4.20;99.90
29281;DHT22;25048;49.590;11.026;2023-12-20T03:22:27;4.10;99.90
29281;DHT22;25048;49.590;11.026;2023-12-20T03:24:55;4.10;99.90
29281;DHT22;25048;49.590;11.026;2023-12-20T03:27:22;4.10;99.90
29281;DHT22;25048;49.590;11.026;2023-12-20T03:29:50;4.00;99.90
29281;DHT22;25048;49.590;11.026;2023-12-20T03:32:17;4.10;99.90
29281;DHT22;25048;49.590;11.026;2023-12-20T03:34:45;4.10;99.90
29281;DHT22;25048;49.590;11.026;2023-12-20T03:37:12;4.10;99.90
29281;DHT22;25048;49.590;11.026;2023-12-20T03:39:40;4.10;99.90
29281;DHT22;25048;49.590;11.026;2023-12-20T03:42:07;4.00;99.90
29281;DHT22;25048;49.590;11.026;2023-12-20T03:44:38;4.00;99.90
29281;DHT22;25048;49.590;11.026;2023-12-20T03:47:04;4.00;99.90
29281;DHT22;25048;49.590;11.026;2023-12-20T03:49:31;4.00;99.90
29281;DHT22;25048;49.590;11.026;2023-12-20T03:51:59;4.00;99.90
29281;DHT22;25048;49.590;11.026;2023-12-20T03:54:26;4.00;99.90
29281;DHT22;25048;49.590;11.026;2023-12-20T03:56:54;4.00;99.90
29281;DHT22;25048;49.590;11.026;2023-12-20T03:59:22;4.00;99.90
29281;DHT22;25048;49.590;11.026;2023-12-20T04:01:50;4.00;99.90
29281;DHT22;25048;49.590;11.026;2023-12-20T04:04:17;4.00;99.90
29281;DHT22;25048;49.590;11.026;2023-12-20T04:06:45;4.00;99.90
29281;DHT22;25048;49.590;11.026;2023-12-20T04:09:12;4.00;99.90
29281;DHT22;25048;49.590;11.026;2023-12-20T04:11:40;4.00;99.90
29281;DHT22;25048;49.590;11.026;2023-12-20T04:14:07;4.00;99.90
29281;DHT22;25048;49.590;11.026;2023-12-20T04:16:35;3.90;99.90
29281;DHT22;25048;49.590;11.026;2023-12-20T04:19:02;3.90;99.90
29281;DHT22;25048;49.590;11.026;2023-12-20T04:21:30;3.90;99.90
29281;DHT22;25048;49.590;11.026;2023-12-20T04:23:58;3.90;99.90
29281;DHT22;25048;49.590;11.026;2023-12-20T04:26:25;3.90;99.90
29281;DHT22;25048;49.590;11.026;2023-12-20T04:28:53;3.90;99.90
29281;DHT22;25048;49.590;11.026;2023-12-20T04:31:20;3.90;99.90
29281;DHT22;25048;49.590;11.026;2023-12-20T04:33:48;3.90;99.90
29281;DHT22;25048;49.590;11.026;2023-12-20T04:36:15;3.90;99.90
29281;DHT22;25048;49.590;11.026;2023-12-20T04:38:43;3.90;99.90
29281;DHT22;25048;49.590;11.026;2023-12-20T04:41:10;3.90;99.90
29281;DHT22;25048;49.590;11.026;2023-12-20T04:43:39;3.80;99.90
29281;DHT22;25048;49.590;11.026;2023-12-20T04:46:07;3.80;99.90
29281;DHT22;25048;49.590;11.026;2023-12-20T04:48:34;3.80;99.90
29281;DHT22;25048;49.590;11.026;2023-12-20T04:51:02;3.80;99.90
29281;DHT22;25048;49.590;11.026;2023-12-20T04:53:30;3.80;99.90
29281;DHT22;25048;49.590;11.026;2023-12-20T04:55:57;3.80;99.90
29281;DHT22;25048;49.590;11.026;2023-12-20T04:58:25;3.80;99.90
29281;DHT22;25048;49.590;11.026;2023-12-20T05:00:52;3.80;99.90
29281;DHT22;25048;49.590;11.026;2023-12-20T05:03:20;3.80;99.90
29281;DHT22;25048;49.590;11.026;2023-12-20T05:05:47;3.90;99.90
29281;DHT22;25048;49.590;11.026;2023-12-20T05:08:15;3.90;99.90
29281;DHT22;25048;49.590;11.026;2023-12-20T05:10:42;3.80;99.90
29281;DHT22;25048;49.590;11.026;2023-12-20T05:13:10;3.80;99.90
29281;DHT22;25048;49.590;11.026;2023-12-20T05:15:37;3.80;99.90
29281;DHT22;25048;49.590;11.026;2023-12-20T05:18:05;3.80;99.90
29281;DHT22;25048;49.590;11.026;2023-12-20T05:20:32;3.80;99.90
29281;DHT22;25048;49.590;11.026;2023-12-20T05:23:00;3.80;99.90
29281;DHT22;25048;49.590;11.026;2023-12-20T05:25:27;3.80;99.90
29281;DHT22;25048;49.590;11.026;2023-12-20T05:27:55;3.80;99.90
29281;DHT22;25048;49.590;11.026;2023-12-20T05:30:22;3.80;99.90
29281;DHT22;25048;49.590;11.026;2023-12-20T05:32:50;3.80;99.90
29281;DHT22;25048;49.590;11.026;2023-12-20T05:35:17;3.80;99.90
29281;DHT22;25048;49.590;11.026;2023-12-20T05:37:45;3.80;99.90
29281;DHT22;25048;49.590;11.026;2023-12-20T05:40:13;3.80;99.90
29281;DHT22;25048;49.590;11.026;2023-12-20T05:42:40;3.80;99.90
29281;DHT22;25048;49.590;11.026;2023-12-20T05:45:08;3.80;99.90
29281;DHT22;25048;49.590;11.026;2023-12-20T05:47:37;3.90;99.90
29281;DHT22;25048;49.590;11.026;2023-12-20T05:50:05;3.90;99.90
29281;DHT22;25048;49.590;11.026;2023-12-20T05:52:32;3.90;99.90
29281;DHT22;25048;49.590;11.026;2023-12-20T05:55:00;3.90;99.90
29281;DHT22;25048;49.590;11.026;2023-12-20T05:57:30;3.90;99.90
29281;DHT22;25048;49.590;11.026;2023-12-20T05:59:57;3.90;99.90
29281;DHT22;25048;49.590;11.026;2023-12-20T06:02:25;3.80;99.90
29281;DHT22;25048;49.590;11.026;2023-12-20T06:04:52;3.90;99.90
29281;DHT22;25048;49.590;11.026;2023-12-20T06:07:20;3.90;99.90
29281;DHT22;25048;49.590;11.026;2023-12-20T06:09:47;3.90;99.90
29281;DHT22;25048;49.590;11.026;2023-12-20T06:12:15;3.90;99.90
29281;DHT22;25048;49.590;11.026;2023-12-20T06:14:42;3.90;99.90
29281;DHT22;25048;49.590;11.026;2023-12-20T06:17:10;3.90;99.90
29281;DHT22;25048;49.590;11.026;2023-12-20T06:19:37;3.90;99.90
29281;DHT22;25048;49.590;11.026;2023-12-20T06:22:05;3.90;99.90
29281;DHT22;25048;49.590;11.026;2023-12-20T06:24:32;3.90;99.90
29281;DHT22;25048;49.590;11.026;2023-12-20T06:27:00;3.90;99.90
29281;DHT22;25048;49.590;11.026;2023-12-20T06:29:28;4.00;99.90
29281;DHT22;25048;49.590;11.026;2023-12-20T06:31:57;4.00;99.90
29281;DHT22;25048;49.590;11.026;2023-12-20T06:34:24;4.00;99.90
29281;DHT22;25048;49.590;11.026;2023-12-20T06:36:52;4.00;99.90
29281;DHT22;25048;49.590;11.026;2023-12-20T06:39:19;4.00;99.90
29281;DHT22;25048;49.590;11.026;2023-12-20T06:41:47;4.00;99.90
29281;DHT22;25048;49.590;11.026;2023-12-20T06:44:14;4.00;99.90
29281;DHT22;25048;49.590;11.026;2023-12-20T06:46:42;4.00;99.90
29281;DHT22;25048;49.590;11.026;2023-12-20T06:49:10;4.10;99.90
29281;DHT22;25048;49.590;11.026;2023-12-20T06:51:38;4.00;99.90
29281;DHT22;25048;49.590;11.026;2023-12-20T06:54:06;4.10;99.90
29281;DHT22;25048;49.590;11.026;2023-12-20T06:56:33;4.10;99.90
29281;DHT22;25048;49.590;11.026;2023-12-20T06:59:01;4.10;99.90
29281;DHT22;25048;49.590;11.026;2023-12-20T07:01:28;4.10;99.90
29281;DHT22;25048;49.590;11.026;2023-12-20T07:03:56;4.10;99.90
29281;DHT22;25048;49.590;11.026;2023-12-20T07:06:23;4.10;99.90
29281;DHT22;25048;49.590;11.026;2023-12-20T07:08:52;4.20;99.90
29281;DHT22;25048;49.590;11.026;2023-12-20T07:11:20;4.10;99.90
29281;DHT22;25048;49.590;11.026;2023-12-20T07:13:47;4.20;99.90
29281;DHT22;25048;49.590;11.026;2023-12-20T07:16:16;4.20;99.90
29281;DHT22;25048;49.590;11.026;2023-12-20T07:18:43;4.20;99.90
29281;DHT22;25048;49.590;11.026;2023-12-20T07:21:11;4.20;99.90
29281;DHT22;25048;49.590;11.026;2023-12-20T07:23:38;4.20;99.90
29281;DHT22;25048;49.590;11.026;2023-12-20T07:26:07;4.20;99.90
29281;DHT22;25048;49.590;11.026;2023-12-20T07:28:34;4.20;99.90
29281;DHT22;25048;49.590;11.026;2023-12-20T07:31:02;4.20;99.90
29281;DHT22;25048;49.590;11.026;2023-12-20T07:33:29;4.20;99.90
29281;DHT22;25048;49.590;11.026;2023-12-20T07:35:57;4.20;99.90
29281;DHT22;25048;49.590;11.026;2023-12-20T07:38:27;4.20;99.90
29281;DHT22;25048;49.590;11.026;2023-12-20T07:40:54;4.20;99.90
29281;DHT22;25048;49.590;11.026;2023-12-20T07:43:22;4.20;99.90
29281;DHT22;25048;49.590;11.026;2023-12-20T07:45:49;4.20;99.90
29281;DHT22;25048;49.590;11.026;2023-12-20T07:48:17;4.30;99.90
29281;DHT22;25048;49.590;11.026;2023-12-20T07:50:44;4.30;99.90
29281;DHT22;25048;49.590;11.026;2023-12-20T07:53:12;4.30;99.90
29281;DHT22;25048;49.590;11.026;2023-12-20T07:55:40;4.30;99.90
29281;DHT22;25048;49.590;11.026;2023-12-20T07:58:07;4.30;99.90
29281;DHT22;25048;49.590;11.026;2023-12-20T08:00:35;4.30;99.90
29281;DHT22;25048;49.590;11.026;2023-12-20T08:03:02;4.40;99.90
29281;DHT22;25048;49.590;11.026;2023-12-20T08:05:30;4.40;99.90
29281;DHT22;25048;49.590;11.026;2023-12-20T08:07:57;4.40;99.90
29281;DHT22;25048;49.590;11.026;2023-12-20T08:10:25;4.50;99.90
29281;DHT22;25048;49.590;11.026;2023-12-20T08:12:53;4.50;99.90
29281;DHT22;25048;49.590;11.026;2023-12-20T08:15:21;4.50;99.90
29281;DHT22;25048;49.590;11.026;2023-12-20T08:17:48;4.60;99.90
29281;DHT22;25048;49.590;11.026;2023-12-20T08:20:17;4.60;99.90
29281;DHT22;25048;49.590;11.026;2023-12-20T08:22:45;4.70;99.90
29281;DHT22;25048;49.590;11.026;2023-12-20T08:25:12;4.70;99.90
29281;DHT22;25048;49.590;11.026;2023-12-20T08:27:42;4.60;99.90
29281;DHT22;25048;49.590;11.026;2023-12-20T08:30:09;4.60;99.90
29281;DHT22;25048;49.590;11.026;2023-12-20T08:32:37;4.60;99.90
29281;DHT22;25048;49.590;11.026;2023-12-20T08:35:05;4.60;99.90
29281;DHT22;25048;49.590;11.026;2023-12-20T08:37:32;4.60;99.90
29281;DHT22;25048;49.590;11.026;2023-12-20T08:40:00;4.60;99.90
29281;DHT22;25048;49.590;11.026;2023-12-20T08:42:27;4.60;99.90
29281;DHT22;25048;49.590;11.026;2023-12-20T08:44:57;4.70;99.90
29281;DHT22;25048;49.590;11.026;2023-12-20T08:47:25;4.60;99.90
29281;DHT22;25048;49.590;11.026;2023-12-20T08:49:53;4.60;99.90
29281;DHT22;25048;49.590;11.026;2023-12-20T08:52:23;4.60;99.90
29281;DHT22;25048;49.590;11.026;2023-12-20T08:54:51;4.60;99.90
29281;DHT22;25048;49.590;11.026;2023-12-20T08:57:23;4.60;99.90
29281;DHT22;25048;49.590;11.026;2023-12-20T08:59:51;4.60;99.90
29281;DHT22;25048;49.590;11.026;2023-12-20T09:02:19;4.50;99.90
29281;DHT22;25048;49.590;11.026;2023-12-20T09:04:46;4.50;99.90
29281;DHT22;25048;49.590;11.026;2023-12-20T09:07:26;4.50;99.90
29281;DHT22;25048;49.590;11.026;2023-12-20T09:09:55;4.50;99.90
29281;DHT22;25048;49.590;11.026;2023-12-20T09:12:23;4.50;99.90
29281;DHT22;25048;49.590;11.026;2023-12-20T09:14:55;4.50;99.90
29281;DHT22;25048;49.590;11.026;2023-12-20T09:17:20;4.50;99.90
29281;DHT22;25048;49.590;11.026;2023-12-20T09:19:49;4.50;99.90
29281;DHT22;25048;49.590;11.026;2023-12-20T09:22:18;4.50;99.90
29281;DHT22;25048;49.590;11.026;2023-12-20T09:24:46;4.60;99.90
29281;DHT22;25048;49.590;11.026;2023-12-20T09:27:13;4.60;99.90
29281;DHT22;25048;49.590;11.026;2023-12-20T09:29:41;4.60;99.90
29281;DHT22;25048;49.590;11.026;2023-12-20T09:32:08;4.70;99.90
29281;DHT22;25048;49.590;11.026;2023-12-20T09:34:36;4.70;99.90
29281;DHT22;25048;49.590;11.026;2023-12-20T09:37:04;4.70;99.90
29281;DHT22;25048;49.590;11.026;2023-12-20T09:39:32;4.80;99.90
29281;DHT22;25048;49.590;11.026;2023-12-20T09:42:06;4.80;99.90
29281;DHT22;25048;49.590;11.026;2023-12-20T09:44:34;4.90;99.90
29281;DHT22;25048;49.590;11.026;2023-12-20T09:47:04;5.10;99.90
29281;DHT22;25048;49.590;11.026;2023-12-20T09:49:33;5.30;99.90
29281;DHT22;25048;49.590;11.026;2023-12-20T09:52:01;5.50;99.90
29281;DHT22;25048;49.590;11.026;2023-12-20T09:54:29;5.70;99.90
29281;DHT22;25048;49.590;11.026;2023-12-20T09:56:57;5.80;99.90
29281;DHT22;25048;49.590;11.026;2023-12-20T09:59:24;5.80;99.90
29281;DHT22;25048;49.590;11.026;2023-12-20T10:01:54;5.90;99.90
29281;DHT22;25048;49.590;11.026;2023-12-20T10:04:24;5.90;99.90
29281;DHT22;25048;49.590;11.026;2023-12-20T10:06:52;5.90;99.90
29281;DHT22;25048;49.590;11.026;2023-12-20T10:09:19;5.90;99.90
29281;DHT22;25048;49.590;11.026;2023-12-20T10:11:47;5.80;99.90
29281;DHT22;25048;49.590;11.026;2023-12-20T10:14:16;5.80;99.90
29281;DHT22;25048;49.590;11.026;2023-12-20T10:16:45;5.70;99.90
29281;DHT22;25048;49.590;11.026;2023-12-20T10:19:12;5.80;99.90
29281;DHT22;25048;49.590;11.026;2023-12-20T10:21:41;5.70;99.90
29281;DHT22;25048;49.590;11.026;2023-12-20T10:24:09;5.80;99.90
29281;DHT22;25048;49.590;11.026;2023-12-20T10:26:38;5.80;99.90
29281;DHT22;25048;49.590;11.026;2023-12-20T10:29:06;5.80;99.90
29281;DHT22;25048;49.590;11.026;2023-12-20T10:31:34;5.80;99.90
29281;DHT22;25048;49.590;11.026;2023-12-20T10:34:03;5.70;99.90
29281;DHT22;25048;49.590;11.026;2023-12-20T10:36:33;5.70;99.90
29281;DHT22;25048;49.590;11.026;2023-12-20T10:39:02;5.60;99.90
29281;DHT22;25048;49.590;11.026;2023-12-20T10:41:32;5.50;99.90
29281;DHT22;25048;49.590;11.026;2023-12-20T10:44:03;5.60;99.90
29281;DHT22;25048;49.590;11.026;2023-12-20T10:46:31;5.60;99.90
29281;DHT22;25048;49.590;11.026;2023-12-20T10:49:05;5.60;99.90
29281;DHT22;25048;49.590;11.026;2023-12-20T10:51:34;5.60;99.90
29281;DHT22;25048;49.590;11.026;2023-12-20T10:54:02;5.70;99.90
29281;DHT22;25048;49.590;11.026;2023-12-20T10:56:32;5.80;99.90
29281;DHT22;25048;49.590;11.026;2023-12-20T10:59:02;5.80;99.90
29281;DHT22;25048;49.590;11.026;2023-12-20T11:01:32;5.80;99.90
29281;DHT22;25048;49.590;11.026;2023-12-20T11:04:05;5.90;99.90
29281;DHT22;25048;49.590;11.026;2023-12-20T11:06:47;6.00;99.90
29281;DHT22;25048;49.590;11.026;2023-12-20T11:09:26;6.10;99.90
29281;DHT22;25048;49.590;11.026;2023-12-20T11:14:48;6.20;99.90
29281;DHT22;25048;49.590;11.026;2023-12-20T11:17:16;6.20;99.90
29281;DHT22;25048;49.590;11.026;2023-12-20T11:22:32;6.20;99.90
29281;DHT22;25048;49.590;11.026;2023-12-20T11:25:08;6.20;99.90
29281;DHT22;25048;49.590;11.026;2023-12-20T11:27:37;6.10;99.90
29281;DHT22;25048;49.590;11.026;2023-12-20T11:30:06;6.10;99.90
29281;DHT22;25048;49.590;11.026;2023-12-20T11:32:37;6.10;99.90
29281;DHT22;25048;49.590;11.026;2023-12-20T11:37:38;6.00;99.90
29281;DHT22;25048;49.590;11.026;2023-12-20T11:40:18;6.00;99.90
29281;DHT22;25048;49.590;11.026;2023-12-20T11:42:44;6.00;99.90
29281;DHT22;25048;49.590;11.026;2023-12-20T11:45:14;6.00;99.90
29281;DHT22;25048;49.590;11.026;2023-12-20T11:47:47;6.00;99.90
29281;DHT22;25048;49.590;11.026;2023-12-20T11:50:16;5.90;99.90
29281;DHT22;25048;49.590;11.026;2023-12-20T11:52:44;5.90;99.90
29281;DHT22;25048;49.590;11.026;2023-12-20T11:55:12;5.90;99.90
29281;DHT22;25048;49.590;11.026;2023-12-20T11:57:40;6.00;99.90
29281;DHT22;25048;49.590;11.026;2023-12-20T12:00:07;5.90;99.90
29281;DHT22;25048;49.590;11.026;2023-12-20T12:02:35;6.00;99.90
29281;DHT22;25048;49.590;11.026;2023-12-20T12:05:03;6.00;99.90
29281;DHT22;25048;49.590;11.026;2023-12-20T12:07:34;6.00;99.90
29281;DHT22;25048;49.590;11.026;2023-12-20T12:10:02;6.00;99.90
29281;DHT22;25048;49.590;11.026;2023-12-20T12:12:32;6.10;99.90
29281;DHT22;25048;49.590;11.026;2023-12-20T12:15:00;6.00;99.90
29281;DHT22;25048;49.590;11.026;2023-12-20T12:17:29;6.10;99.90
29281;DHT22;25048;49.590;11.026;2023-12-20T12:20:04;6.10;99.90
29281;DHT22;25048;49.590;11.026;2023-12-20T12:22:32;6.00;99.90
29281;DHT22;25048;49.590;11.026;2023-12-20T12:25:11;6.00;99.90
29281;DHT22;25048;49.590;11.026;2023-12-20T12:27:42;6.00;99.90
29281;DHT22;25048;49.590;11.026;2023-12-20T12:30:10;6.00;99.90
29281;DHT22;25048;49.590;11.026;2023-12-20T12:32:39;6.00;99.90
29281;DHT22;25048;49.590;11.026;2023-12-20T12:35:08;6.00;99.90
29281;DHT22;25048;49.590;11.026;2023-12-20T12:37:38;6.10;99.90
29281;DHT22;25048;49.590;11.026;2023-12-20T12:40:09;6.10;99.90
29281;DHT22;25048;49.590;11.026;2023-12-20T12:42:37;6.10;99.90
29281;DHT22;25048;49.590;11.026;2023-12-20T12:45:05;6.00;99.90
29281;DHT22;25048;49.590;11.026;2023-12-20T12:47:33;6.00;99.90
29281;DHT22;25048;49.590;11.026;2023-12-20T12:50:01;6.00;99.90
29281;DHT22;25048;49.590;11.026;2023-12-20T12:52:29;6.00;99.90
29281;DHT22;25048;49.590;11.026;2023-12-20T12:54:57;5.90;99.90
29281;DHT22;25048;49.590;11.026;2023-12-20T12:57:25;5.90;99.90
29281;DHT22;25048;49.590;11.026;2023-12-20T12:59:52;5.90;99.90
29281;DHT22;25048;49.590;11.026;2023-12-20T13:02:20;6.00;99.90
29281;DHT22;25048;49.590;11.026;2023-12-20T13:04:48;6.00;99.90
29281;DHT22;25048;49.590;11.026;2023-12-20T13:07:15;6.00;99.90
29281;DHT22;25048;49.590;11.026;2023-12-20T13:09:43;5.90;99.90
29281;DHT22;25048;49.590;11.026;2023-12-20T13:12:11;5.90;99.90
29281;DHT22;25048;49.590;11.026;2023-12-20T13:14:38;5.90;99.90
29281;DHT22;25048;49.590;11.026;2023-12-20T13:17:07;5.80;99.90
29281;DHT22;25048;49.590;11.026;2023-12-20T13:19:34;5.60;99.90
29281;DHT22;25048;49.590;11.026;2023-12-20T13:22:02;5.50;99.90
29281;DHT22;25048;49.590;11.026;2023-12-20T13:24:30;5.50;99.90
29281;DHT22;25048;49.590;11.026;2023-12-20T13:26:58;5.40;99.90
29281;DHT22;25048;49.590;11.026;2023-12-20T13:29:26;5.40;99.90
29281;DHT22;25048;49.590;11.026;2023-12-20T13:31:56;5.40;99.90
29281;DHT22;25048;49.590;11.026;2023-12-20T13:34:25;5.40;99.90
29281;DHT22;25048;49.590;11.026;2023-12-20T13:36:52;5.40;99.90
29281;DHT22;25048;49.590;11.026;2023-12-20T13:39:20;5.40;99.90
29281;DHT22;25048;49.590;11.026;2023-12-20T13:41:48;5.40;99.90
29281;DHT22;25048;49.590;11.026;2023-12-20T13:44:15;5.40;99.90
29281;DHT22;25048;49.590;11.026;2023-12-20T13:46:42;5.40;99.90
29281;DHT22;25048;49.590;11.026;2023-12-20T13:49:11;5.40;99.90
29281;DHT22;25048;49.590;11.026;2023-12-20T13:51:40;5.40;99.90
29281;DHT22;25048;49.590;11.026;2023-12-20T13:54:07;5.40;99.90
29281;DHT22;25048;49.590;11.026;2023-12-20T13:56:36;5.40;99.90
29281;DHT22;25048;49.590;11.026;2023-12-20T13:59:04;5.40;99.90
29281;DHT22;25048;49.590;11.026;2023-12-20T14:01:31;5.40;99.90
29281;DHT22;25048;49.590;11.026;2023-12-20T14:03:59;5.40;99.90
29281;DHT22;25048;49.590;11.026;2023-12-20T14:06:27;5.40;99.90
29281;DHT22;25048;49.590;11.026;2023-12-20T14:08:56;5.40;99.90
29281;DHT22;25048;49.590;11.026;2023-12-20T14:11:23;5.40;99.90
29281;DHT22;25048;49.590;11.026;2023-12-20T14:13:51;5.40;99.90
29281;DHT22;25048;49.590;11.026;2023-12-20T14:16:18;5.40;99.90
29281;DHT22;25048;49.590;11.026;2023-12-20T14:18:46;5.30;99.90
29281;DHT22;25048;49.590;11.026;2023-12-20T14:21:13;5.30;99.90
29281;DHT22;25048;49.590;11.026;2023-12-20T14:23:41;5.30;99.90
29281;DHT22;25048;49.590;11.026;2023-12-20T14:26:08;5.30;99.90
29281;DHT22;25048;49.590;11.026;2023-12-20T14:28:37;5.30;99.90
29281;DHT22;25048;49.590;11.026;2023-12-20T14:31:05;5.30;99.90
29281;DHT22;25048;49.590;11.026;2023-12-20T14:33:34;5.30;99.90
29281;DHT22;25048;49.590;11.026;2023-12-20T14:36:02;5.30;99.90
29281;DHT22;25048;49.590;11.026;2023-12-20T14:38:32;5.30;99.90
29281;DHT22;25048;49.590;11.026;2023-12-20T14:40:59;5.30;99.90
29281;DHT22;25048;49.590;11.026;2023-12-20T14:43:27;5.20;99.90
29281;DHT22;25048;49.590;11.026;2023-12-20T14:45:54;5.30;99.90
29281;DHT22;25048;49.590;11.026;2023-12-20T14:48:22;5.20;99.90
29281;DHT22;25048;49.590;11.026;2023-12-20T14:50:49;5.20;99.90
29281;DHT22;25048;49.590;11.026;2023-12-20T14:53:17;5.20;99.90
29281;DHT22;25048;49.590;11.026;2023-12-20T14:55:45;5.20;99.90
29281;DHT22;25048;49.590;11.026;2023-12-20T14:58:13;5.10;99.90
29281;DHT22;25048;49.590;11.026;2023-12-20T15:00:42;5.10;99.90
29281;DHT22;25048;49.590;11.026;2023-12-20T15:03:10;5.10;99.90
29281;DHT22;25048;49.590;11.026;2023-12-20T15:05:38;5.00;99.90
29281;DHT22;25048;49.590;11.026;2023-12-20T15:08:06;5.00;99.90
29281;DHT22;25048;49.590;11.026;2023-12-20T15:10:33;5.00;99.90
29281;DHT22;25048;49.590;11.026;2023-12-20T15:13:01;4.90;99.90
29281;DHT22;25048;49.590;11.026;2023-12-20T15:15:28;4.90;99.90
29281;DHT22;25048;49.590;11.026;2023-12-20T15:17:56;4.90;99.90
29281;DHT22;25048;49.590;11.026;2023-12-20T15:20:23;4.90;99.90
29281;DHT22;25048;49.590;11.026;2023-12-20T15:22:51;4.80;99.90
29281;DHT22;25048;49.590;11.026;2023-12-20T15:25:19;4.90;99.90
29281;DHT22;25048;49.590;11.026;2023-12-20T15:27:49;4.90;99.90
29281;DHT22;25048;49.590;11.026;2023-12-20T15:30:19;4.90;99.90
29281;DHT22;25048;49.590;11.026;2023-12-20T15:32:47;4.90;99.90
29281;DHT22;25048;49.590;11.026;2023-12-20T15:35:15;4.90;99.90
29281;DHT22;25048;49.590;11.026;2023-12-20T15:37:42;4.90;99.90
29281;DHT22;25048;49.590;11.026;2023-12-20T15:40:11;4.90;99.90
29281;DHT22;25048;49.590;11.026;2023-12-20T15:42:39;4.90;99.90